Margaret F. Cooper — WDB9825 — position and weather

sailwx.info

Track history (hours):
 
Tides and Currents Weather Stations Pressure Air Temp Water Temp Dewpoint Dewpoint Depression Visibility Wind Speed Wind Dir Waves Ship Positions

Margaret F. Cooper

Owner: CRESCENT TOWING & SALVAGE CO INC, New Orleans, LA. More information available from US FCC via Universal Licensing System and Coast Guard Vessel Documentation Center.

Last reported at 2014-Oct-18 03:03 UTC. Time now 2014-Oct-20 21:23 UTC.
Position N 30°02' W 090°42'.

Length 30 m; draft 4.5 m.

Type: Tug. MMSI: 366983480.

Date/timePositionNaut miles runAvg speedWind from/ knotsBaromVisibWave heightAir tempDewpointWater temp
2014-Oct-18 03:03N 30°02' W 090°42'  
2014-Oct-15 13:06N 30°02' W 090°42'0 0.0
2014-Oct-15 12:32N 30°02' W 090°42'0 0.0
2014-Oct-15 09:29N 30°02' W 090°42'0 0.0
2014-Oct-15 08:33N 30°02' W 090°42'0 0.0
2014-Oct-15 07:33N 30°02' W 090°42'2 0.5
2014-Oct-15 02:32N 30°01' W 090°44'20 0.5
2014-Oct-13 12:33N 29°56' W 090°22'3 0.2
2014-Oct-12 21:32N 29°56' W 090°19'0 0.2
2014-Oct-12 20:33N 29°57' W 090°19'0 0.0
2014-Oct-12 15:10N 29°56' W 090°19'1 0.1
2014-Oct-11 23:30N 29°56' W 090°20'1 0.9
2014-Oct-11 22:28N 29°56' W 090°21'1 0.1
2014-Oct-11 10:33N 29°56' W 090°20'2 0.5
2014-Oct-11 07:33N 29°56' W 090°22'0 0.1
2014-Oct-11 06:33N 29°56' W 090°22'0 0.1
2014-Oct-11 05:32N 29°56' W 090°22'9 8.7
2014-Oct-11 04:33N 30°03' W 090°29'0 0.5
2014-Oct-11 03:33N 30°03' W 090°29'1 1.2
2014-Oct-11 02:34N 30°03' W 090°30'2 1.4
2014-Oct-11 01:27N 30°02' W 090°28'5 6.0
2014-Oct-11 00:33N 30°03' W 090°35'0 0.1
2014-Oct-10 23:33N 30°03' W 090°34'0 0.1
2014-Oct-10 22:33N 30°03' W 090°34'0 0.0
2014-Oct-10 21:33N 30°03' W 090°34'2 1.6
2014-Oct-10 20:33N 30°03' W 090°36'  
2014-Oct-08 11:33N 30°03' W 090°40'0 0.0
2014-Oct-08 10:34N 30°03' W 090°40'0 0.0
2014-Oct-08 09:33N 30°03' W 090°40'1 1.1
2014-Oct-08 08:33N 30°03' W 090°39'0 0.1
2014-Oct-08 07:33N 30°03' W 090°39'0 0.0
2014-Oct-08 06:32N 30°03' W 090°39'0 0.0
2014-Oct-08 05:33N 30°03' W 090°39'7 7.4
2014-Oct-08 04:33N 30°00' W 090°47'  
Track history (hours):
 
Tides and Currents Weather Stations Pressure Air Temp Water Temp Dewpoint Dewpoint Depression Visibility Wind Speed Wind Dir Waves Ship Positions

Margaret F. Cooper

Owner: CRESCENT TOWING & SALVAGE CO INC, New Orleans, LA. More information available from US FCC via Universal Licensing System and Coast Guard Vessel Documentation Center.

Last reported at 2014-Oct-18 03:03 UTC. Time now 2014-Oct-20 21:23 UTC.
Position N 30°02' W 090°42'.

Length 30 m; draft 4.5 m.

Type: Tug. MMSI: 366983480.

Date/timePositionNaut miles runAvg speedWind from/ knotsBaromVisibWave heightAir tempDewpointWater temp
2014-Oct-18 03:03N 30°02' W 090°42'  
2014-Oct-15 13:06N 30°02' W 090°42'0 0.0
2014-Oct-15 12:32N 30°02' W 090°42'0 0.0
2014-Oct-15 09:29N 30°02' W 090°42'0 0.0
2014-Oct-15 08:33N 30°02' W 090°42'0 0.0
2014-Oct-15 07:33N 30°02' W 090°42'2 0.5
2014-Oct-15 02:32N 30°01' W 090°44'20 0.5
2014-Oct-13 12:33N 29°56' W 090°22'3 0.2
2014-Oct-12 21:32N 29°56' W 090°19'0 0.2
2014-Oct-12 20:33N 29°57' W 090°19'0 0.0
2014-Oct-12 15:10N 29°56' W 090°19'1 0.1
2014-Oct-11 23:30N 29°56' W 090°20'1 0.9
2014-Oct-11 22:28N 29°56' W 090°21'1 0.1
2014-Oct-11 10:33N 29°56' W 090°20'2 0.5
2014-Oct-11 07:33N 29°56' W 090°22'0 0.1
2014-Oct-11 06:33N 29°56' W 090°22'0 0.1
2014-Oct-11 05:32N 29°56' W 090°22'9 8.7
2014-Oct-11 04:33N 30°03' W 090°29'0 0.5
2014-Oct-11 03:33N 30°03' W 090°29'1 1.2
2014-Oct-11 02:34N 30°03' W 090°30'2 1.4
2014-Oct-11 01:27N 30°02' W 090°28'5 6.0
2014-Oct-11 00:33N 30°03' W 090°35'0 0.1
2014-Oct-10 23:33N 30°03' W 090°34'0 0.1
2014-Oct-10 22:33N 30°03' W 090°34'0 0.0
2014-Oct-10 21:33N 30°03' W 090°34'2 1.6
2014-Oct-10 20:33N 30°03' W 090°36'  
2014-Oct-08 11:33N 30°03' W 090°40'0 0.0
2014-Oct-08 10:34N 30°03' W 090°40'0 0.0
2014-Oct-08 09:33N 30°03' W 090°40'1 1.1
2014-Oct-08 08:33N 30°03' W 090°39'0 0.1
2014-Oct-08 07:33N 30°03' W 090°39'0 0.0
2014-Oct-08 06:32N 30°03' W 090°39'0 0.0
2014-Oct-08 05:33N 30°03' W 090°39'7 7.4
2014-Oct-08 04:33N 30°00' W 090°47'  

Dump ship's entire track history